Time;durP1;ratioP1;P1;durP2;ratioP2;P2;SDS_P1;SDS_P2;PMS_P1;PMS_P2;Temp;Humidity;BMP_temperature;BMP_pressure;BME280_temperature;BME280_humidity;BME280_pressure;Samples;Min_cycle;Max_cycle;Signal;HPM_P1;HPM_P2
2022/09/27 00:01:00;;;;;;;9.97;2.20;;;;;;;;;;5081718;28;20281;-78
2022/09/27 00:03:28;;;;;;;11.80;1.93;;;;;;;;;;5080632;28;20242;-78
2022/09/27 00:06:04;;;;;;;11.20;1.60;;;;;;;;;;5093277;28;20285;-78
2022/09/27 00:08:31;;;;;;;11.53;2.50;;;;;;;;;;5081417;28;20295;-78
2022/09/27 00:11:02;;;;;;;11.83;1.97;;;;;;;;;;5081769;28;20289;-78
2022/09/27 00:13:29;;;;;;;13.13;2.50;;;;;;;;;;5080978;28;20238;-77
2022/09/27 00:15:57;;;;;;;11.03;2.10;;;;;;;;;;5101146;28;20218;-77
2022/09/27 00:18:26;;;;;;;8.97;2.10;;;;;;;;;;5090089;28;20308;-78
2022/09/27 00:20:53;;;;;;;9.10;1.83;;;;;;;;;;5090594;28;20293;-78
2022/09/27 00:23:20;;;;;;;14.37;2.60;;;;;;;;;;5086492;28;20248;-77
2022/09/27 00:25:55;;;;;;;12.07;2.27;;;;;;;;;;5084489;28;20293;-78
2022/09/27 00:28:23;;;;;;;10.47;2.10;;;;;;;;;;5073893;28;20618;-78
2022/09/27 00:30:50;;;;;;;12.10;2.10;;;;;;;;;;5089092;28;20237;-78
2022/09/27 00:33:17;;;;;;;12.70;2.23;;;;;;;;;;5088407;28;20282;-78
2022/09/27 00:35:46;;;;;;;12.03;2.10;;;;;;;;;;5078793;28;20205;-77
2022/09/27 00:38:14;;;;;;;10.23;1.80;;;;;;;;;;5088195;28;20219;-78
2022/09/27 00:40:44;;;;;;;12.20;1.80;;;;;;;;;;5088585;28;20267;-78
2022/09/27 00:43:16;;;;;;;9.27;2.03;;;;;;;;;;5083733;28;20202;-77
2022/09/27 00:45:44;;;;;;;10.90;2.00;;;;;;;;;;5090834;28;20199;-78
2022/09/27 00:48:13;;;;;;;7.57;1.97;;;;;;;;;;5095159;28;20277;-77
2022/09/27 00:50:43;;;;;;;9.03;1.87;;;;;;;;;;5098558;28;20290;-78
2022/09/27 00:53:16;;;;;;;11.47;1.87;;;;;;;;;;5087225;28;20237;-78
2022/09/27 00:55:45;;;;;;;9.87;1.87;;;;;;;;;;5087069;28;20293;-77
2022/09/27 00:58:14;;;;;;;9.47;2.57;;;;;;;;;;5090809;28;20218;-77
2022/09/27 01:00:45;;;;;;;9.73;2.33;;;;;;;;;;5090278;28;20685;-78
2022/09/27 01:03:21;;;;;;;13.57;2.20;;;;;;;;;;5086577;28;20282;-78
2022/09/27 01:05:48;;;;;;;11.77;1.77;;;;;;;;;;5085069;28;20233;-78
2022/09/27 01:08:17;;;;;;;11.40;2.10;;;;;;;;;;5095042;28;20230;-78
2022/09/27 01:10:48;;;;;;;11.20;1.73;;;;;;;;;;5093141;28;20234;-78
2022/09/27 01:13:20;;;;;;;12.37;1.80;;;;;;;;;;5085664;28;20671;-78
2022/09/27 01:15:52;;;;;;;9.77;1.77;;;;;;;;;;5094111;28;20761;-78
2022/09/27 01:18:25;;;;;;;15.23;2.00;;;;;;;;;;5084444;28;20309;-78
2022/09/27 01:21:08;;;;;;;8.67;2.20;;;;;;;;;;5096050;28;20226;-78
2022/09/27 01:23:53;;;;;;;10.03;1.73;;;;;;;;;;5091863;28;20206;-78
2022/09/27 01:26:28;;;;;;;8.40;1.63;;;;;;;;;;5082661;28;20547;-78
2022/09/27 01:28:59;;;;;;;7.57;1.60;;;;;;;;;;5093681;28;20288;-78
2022/09/27 01:31:31;;;;;;;10.87;1.97;;;;;;;;;;5086490;28;20282;-78
2022/09/27 01:34:02;;;;;;;11.63;1.97;;;;;;;;;;5080976;28;20289;-78
2022/09/27 01:36:33;;;;;;;8.23;1.80;;;;;;;;;;5087341;28;20240;-78
2022/09/27 01:39:07;;;;;;;14.13;1.70;;;;;;;;;;5079647;28;20327;-78
2022/09/27 01:41:38;;;;;;;7.90;1.57;;;;;;;;;;5076116;28;20864;-78
2022/09/27 01:44:06;;;;;;;9.07;1.77;;;;;;;;;;5094127;28;20202;-78
2022/09/27 01:46:38;;;;;;;10.30;1.90;;;;;;;;;;5079121;28;20299;-78
2022/09/27 01:49:09;;;;;;;10.40;1.90;;;;;;;;;;5083332;28;20244;-77
2022/09/27 01:51:38;;;;;;;9.30;1.90;;;;;;;;;;5087915;28;20222;-78
2022/09/27 01:54:06;;;;;;;9.37;1.87;;;;;;;;;;5085484;28;20207;-78
2022/09/27 01:56:35;;;;;;;6.93;1.30;;;;;;;;;;5090341;28;20293;-77
2022/09/27 01:59:08;;;;;;;8.40;1.40;;;;;;;;;;5089046;28;20250;-78
2022/09/27 02:01:38;;;;;;;8.00;1.50;;;;;;;;;;5092377;28;20285;-78
2022/09/27 02:04:08;;;;;;;10.27;1.93;;;;;;;;;;5092727;28;20284;-78
2022/09/27 02:06:37;;;;;;;7.00;1.57;;;;;;;;;;5090220;28;20293;-77
2022/09/27 02:09:06;;;;;;;9.47;1.80;;;;;;;;;;5092160;28;20191;-78
2022/09/27 02:11:33;;;;;;;10.67;1.60;;;;;;;;;;5095699;28;20229;-78
2022/09/27 02:14:03;;;;;;;7.77;1.67;;;;;;;;;;5103131;28;20285;-78
2022/09/27 02:16:34;;;;;;;9.37;1.90;;;;;;;;;;5096091;28;20305;-77
2022/09/27 02:19:07;;;;;;;7.50;1.67;;;;;;;;;;5089688;28;20629;-77
2022/09/27 02:21:39;;;;;;;7.90;1.70;;;;;;;;;;5084047;28;20191;-77
2022/09/27 02:24:07;;;;;;;11.77;1.83;;;;;;;;;;5083030;28;20266;-77
2022/09/27 02:26:37;;;;;;;6.17;1.23;;;;;;;;;;5083770;28;20289;-77
2022/09/27 02:29:08;;;;;;;6.77;1.40;;;;;;;;;;5124792;27;20203;-77
2022/09/27 02:31:35;;;;;;;6.87;1.57;;;;;;;;;;5079219;28;20199;-77
2022/09/27 02:34:06;;;;;;;8.57;1.53;;;;;;;;;;5081451;28;20289;-78
2022/09/27 02:36:33;;;;;;;9.27;1.80;;;;;;;;;;5080654;28;20776;-77
2022/09/27 02:39:01;;;;;;;10.23;1.63;;;;;;;;;;5089276;28;20329;-77
2022/09/27 02:41:28;;;;;;;10.07;1.77;;;;;;;;;;5090502;28;20295;-77
2022/09/27 02:43:56;;;;;;;10.03;1.50;;;;;;;;;;5080321;28;20246;-77
2022/09/27 02:46:41;;;;;;;7.57;1.80;;;;;;;;;;5083959;28;20280;-77
2022/09/27 02:49:19;;;;;;;12.80;1.70;;;;;;;;;;5086004;28;20222;-78
2022/09/27 02:51:50;;;;;;;9.93;1.80;;;;;;;;;;5096793;28;20210;-78
2022/09/27 02:54:22;;;;;;;9.20;1.63;;;;;;;;;;5081359;28;20285;-78
2022/09/27 02:57:02;;;;;;;8.97;1.90;;;;;;;;;;5099632;28;20237;-78
2022/09/27 02:59:34;;;;;;;9.17;1.67;;;;;;;;;;5093582;28;20300;-78
2022/09/27 03:02:04;;;;;;;6.87;1.77;;;;;;;;;;5093227;28;20202;-77
2022/09/27 03:04:36;;;;;;;8.17;1.60;;;;;;;;;;5095251;28;20207;-78
2022/09/27 03:07:03;;;;;;;8.73;1.90;;;;;;;;;;5086346;28;20305;-77
2022/09/27 03:09:40;;;;;;;8.17;1.60;;;;;;;;;;5085928;28;20749;-77
2022/09/27 03:12:07;;;;;;;8.53;1.70;;;;;;;;;;5107075;28;20575;-80
2022/09/27 03:14:35;;;;;;;12.63;1.77;;;;;;;;;;5077320;28;20223;-80
2022/09/27 03:17:02;;;;;;;8.43;1.67;;;;;;;;;;5078714;28;20278;-80
2022/09/27 03:19:29;;;;;;;8.20;1.80;;;;;;;;;;5093687;28;20309;-80
2022/09/27 03:21:57;;;;;;;11.63;2.00;;;;;;;;;;5077018;28;20273;-80
2022/09/27 03:24:25;;;;;;;7.63;1.70;;;;;;;;;;5075288;28;20278;-80
2022/09/27 03:26:52;;;;;;;17.80;2.00;;;;;;;;;;5091164;28;20693;-81
2022/09/27 03:29:19;;;;;;;8.33;1.77;;;;;;;;;;5091944;28;20269;-81
2022/09/27 03:31:46;;;;;;;12.67;1.67;;;;;;;;;;5086417;28;20647;-80
2022/09/27 03:34:13;;;;;;;10.90;1.83;;;;;;;;;;5091387;28;20251;-80
2022/09/27 03:36:41;;;;;;;10.33;2.03;;;;;;;;;;5083058;28;20842;-81
2022/09/27 03:39:10;;;;;;;8.23;1.83;;;;;;;;;;5097788;28;20596;-81
2022/09/27 03:41:37;;;;;;;9.20;1.57;;;;;;;;;;5088228;28;20281;-80
2022/09/27 03:44:04;;;;;;;11.50;1.63;;;;;;;;;;5090544;28;20281;-81
2022/09/27 03:46:31;;;;;;;10.03;1.70;;;;;;;;;;5086145;28;20286;-81
2022/09/27 03:48:58;;;;;;;9.70;1.90;;;;;;;;;;5073335;28;20280;-81
2022/09/27 03:51:26;;;;;;;9.70;2.07;;;;;;;;;;5082817;28;20577;-81
2022/09/27 03:53:53;;;;;;;9.03;1.70;;;;;;;;;;5090767;28;20226;-81
2022/09/27 03:56:21;;;;;;;9.93;1.60;;;;;;;;;;5082271;28;20290;-80
2022/09/27 03:58:49;;;;;;;12.00;2.10;;;;;;;;;;5087946;28;20302;-80
2022/09/27 04:01:16;;;;;;;10.50;2.07;;;;;;;;;;5089991;28;20245;-80
2022/09/27 04:03:44;;;;;;;11.57;1.90;;;;;;;;;;5089680;28;20285;-81
2022/09/27 04:06:11;;;;;;;11.23;2.07;;;;;;;;;;5078168;28;20238;-80
2022/09/27 04:08:39;;;;;;;7.87;1.90;;;;;;;;;;5080090;28;20217;-80
2022/09/27 04:11:06;;;;;;;10.03;2.03;;;;;;;;;;5080916;28;20290;-80
2022/09/27 04:13:35;;;;;;;11.60;2.13;;;;;;;;;;5074075;28;20202;-80
2022/09/27 04:16:02;;;;;;;6.93;1.90;;;;;;;;;;5079338;28;20279;-80
2022/09/27 04:18:30;;;;;;;14.57;2.40;;;;;;;;;;5086267;28;20210;-81
2022/09/27 04:20:57;;;;;;;12.20;2.10;;;;;;;;;;5094502;28;20236;-80
2022/09/27 04:23:24;;;;;;;9.27;1.90;;;;;;;;;;5074765;28;20302;-81
2022/09/27 04:25:51;;;;;;;8.80;1.87;;;;;;;;;;5095552;28;20310;-80
2022/09/27 04:28:18;;;;;;;11.53;2.40;;;;;;;;;;5091866;28;20286;-81
2022/09/27 04:30:47;;;;;;;10.93;2.07;;;;;;;;;;5079079;28;20286;-81
2022/09/27 04:33:15;;;;;;;14.53;2.20;;;;;;;;;;5081723;28;20286;-81
2022/09/27 04:38:28;;;;;;;10.07;2.03;;;;;;;;;;5073016;28;20263;-80
2022/09/27 04:40:55;;;;;;;8.63;1.87;;;;;;;;;;5086669;28;20198;-81
2022/09/27 04:43:24;;;;;;;14.97;2.67;;;;;;;;;;5085860;28;20290;-81
2022/09/27 04:45:52;;;;;;;8.23;2.00;;;;;;;;;;5093271;28;20199;-81
2022/09/27 04:48:20;;;;;;;12.47;2.37;;;;;;;;;;5080321;28;20190;-81
2022/09/27 04:50:47;;;;;;;9.00;2.13;;;;;;;;;;5088447;28;20237;-81
2022/09/27 04:53:15;;;;;;;9.27;1.93;;;;;;;;;;5079916;28;20222;-82
2022/09/27 04:55:45;;;;;;;11.33;2.47;;;;;;;;;;5081629;28;20718;-83
2022/09/27 04:58:13;;;;;;;8.47;2.00;;;;;;;;;;5078011;28;20623;-83
2022/09/27 05:00:41;;;;;;;10.17;2.07;;;;;;;;;;5080317;28;20241;-83
2022/09/27 05:03:10;;;;;;;13.47;2.20;;;;;;;;;;5098635;28;20255;-82
2022/09/27 05:05:37;;;;;;;12.03;2.03;;;;;;;;;;5082819;28;20281;-82
2022/09/27 05:08:05;;;;;;;11.40;2.40;;;;;;;;;;5086211;28;20250;-83
2022/09/27 05:10:32;;;;;;;6.53;1.73;;;;;;;;;;5087788;28;20642;-82
2022/09/27 05:12:59;;;;;;;10.97;2.00;;;;;;;;;;5083453;28;20226;-82
2022/09/27 05:15:26;;;;;;;11.07;2.23;;;;;;;;;;5099666;28;20649;-82
2022/09/27 05:17:54;;;;;;;12.67;2.00;;;;;;;;;;5088867;28;20253;-83
2022/09/27 05:20:24;;;;;;;11.13;2.03;;;;;;;;;;5101234;28;20240;-82
2022/09/27 05:22:51;;;;;;;10.03;2.23;;;;;;;;;;5101637;28;20294;-83
2022/09/27 05:25:19;;;;;;;10.43;2.20;;;;;;;;;;5100166;28;20642;-82
2022/09/27 05:27:47;;;;;;;9.33;2.20;;;;;;;;;;5091608;28;20277;-82
2022/09/27 05:30:14;;;;;;;11.93;2.10;;;;;;;;;;5106845;28;20552;-84
2022/09/27 05:32:44;;;;;;;12.33;2.40;;;;;;;;;;5095107;28;20222;-84
2022/09/27 05:35:11;;;;;;;8.97;1.83;;;;;;;;;;5088141;28;20218;-83
2022/09/27 05:37:40;;;;;;;10.03;2.30;;;;;;;;;;5085511;28;20198;-83
2022/09/27 05:40:08;;;;;;;8.13;2.27;;;;;;;;;;5084991;28;21697;-82
2022/09/27 05:42:37;;;;;;;11.30;2.10;;;;;;;;;;5084501;28;20209;-83
2022/09/27 05:45:05;;;;;;;12.03;2.47;;;;;;;;;;5086150;28;20209;-83
2022/09/27 05:47:33;;;;;;;11.47;2.07;;;;;;;;;;5086035;28;20202;-83
2022/09/27 05:50:00;;;;;;;14.77;2.73;;;;;;;;;;5088803;28;20293;-82
2022/09/27 05:52:28;;;;;;;12.80;2.60;;;;;;;;;;5093228;28;20724;-82
2022/09/27 05:54:57;;;;;;;18.27;2.70;;;;;;;;;;5090645;28;21101;-83
2022/09/27 05:57:24;;;;;;;11.00;2.53;;;;;;;;;;5090528;28;20213;-82
2022/09/27 05:59:52;;;;;;;12.17;2.47;;;;;;;;;;5086811;28;20222;-82
2022/09/27 06:02:19;;;;;;;12.37;2.40;;;;;;;;;;5084210;28;20226;-82
2022/09/27 06:04:46;;;;;;;12.13;2.73;;;;;;;;;;5089761;28;20234;-82
2022/09/27 06:07:13;;;;;;;11.97;2.37;;;;;;;;;;5085284;28;20310;-82
2022/09/27 06:09:40;;;;;;;11.53;2.30;;;;;;;;;;5082428;28;20191;-82
2022/09/27 06:12:10;;;;;;;15.13;2.80;;;;;;;;;;5090406;28;20277;-82
2022/09/27 06:14:38;;;;;;;11.90;2.20;;;;;;;;;;5086754;28;20285;-82
2022/09/27 06:17:05;;;;;;;10.80;2.20;;;;;;;;;;5082418;28;20195;-82
2022/09/27 06:19:32;;;;;;;10.67;1.83;;;;;;;;;;5092244;28;20221;-81
2022/09/27 06:22:00;;;;;;;10.80;1.80;;;;;;;;;;5082287;28;20230;-82
2022/09/27 06:24:27;;;;;;;10.43;1.97;;;;;;;;;;5082728;28;20226;-82
2022/09/27 06:26:55;;;;;;;11.67;2.00;;;;;;;;;;5092853;28;20253;-83
2022/09/27 06:29:23;;;;;;;11.27;2.20;;;;;;;;;;5086774;28;20286;-82
2022/09/27 06:31:50;;;;;;;9.97;2.10;;;;;;;;;;5083447;28;20199;-82
2022/09/27 06:34:18;;;;;;;8.37;1.93;;;;;;;;;;5084969;28;20286;-81
2022/09/27 06:36:46;;;;;;;14.07;2.60;;;;;;;;;;5082048;28;20292;-80
2022/09/27 06:39:13;;;;;;;14.00;2.20;;;;;;;;;;5089253;28;20222;-80
2022/09/27 06:41:40;;;;;;;9.17;2.07;;;;;;;;;;5084189;28;20686;-80
2022/09/27 06:44:07;;;;;;;10.20;2.13;;;;;;;;;;5087455;28;20190;-80
2022/09/27 06:46:37;;;;;;;10.00;2.20;;;;;;;;;;5086930;28;20297;-80
2022/09/27 06:49:05;;;;;;;12.87;2.20;;;;;;;;;;5088189;28;20187;-80
2022/09/27 06:51:32;;;;;;;10.57;2.13;;;;;;;;;;5092134;28;20268;-81
2022/09/27 06:53:59;;;;;;;8.60;1.93;;;;;;;;;;5077357;28;20241;-81
2022/09/27 06:56:27;;;;;;;7.23;1.90;;;;;;;;;;5080933;28;20667;-81
2022/09/27 07:01:40;;;;;;;9.60;1.90;;;;;;;;;;5083621;28;20278;-81
2022/09/27 07:04:08;;;;;;;5.43;1.67;;;;;;;;;;5081168;28;20289;-81
2022/09/27 07:06:36;;;;;;;10.37;2.07;;;;;;;;;;5080154;28;20721;-81
2022/09/27 07:09:05;;;;;;;12.03;2.20;;;;;;;;;;5080099;28;20195;-81
2022/09/27 07:11:36;;;;;;;9.40;2.00;;;;;;;;;;5090745;28;20825;-82
2022/09/27 07:14:03;;;;;;;7.77;1.90;;;;;;;;;;5091307;28;20584;-81
2022/09/27 07:16:33;;;;;;;9.60;1.87;;;;;;;;;;5087113;28;20227;-81
2022/09/27 07:19:02;;;;;;;9.77;2.00;;;;;;;;;;5081305;28;20227;-81
2022/09/27 07:21:29;;;;;;;11.40;1.90;;;;;;;;;;5087733;28;20206;-81
2022/09/27 07:23:56;;;;;;;7.93;1.80;;;;;;;;;;5093749;28;20681;-81
2022/09/27 07:26:23;;;;;;;13.13;1.93;;;;;;;;;;5079104;28;20230;-81
2022/09/27 07:28:52;;;;;;;10.70;1.60;;;;;;;;;;5079621;28;20294;-81
2022/09/27 07:31:19;;;;;;;8.80;2.13;;;;;;;;;;5081021;28;20666;-81
2022/09/27 07:33:46;;;;;;;9.77;2.30;;;;;;;;;;5091283;28;20213;-82
2022/09/27 07:36:15;;;;;;;9.30;2.10;;;;;;;;;;5090862;28;20639;-81
2022/09/27 07:38:42;;;;;;;8.17;1.77;;;;;;;;;;5090284;28;20316;-82
2022/09/27 07:41:11;;;;;;;10.30;2.13;;;;;;;;;;5094720;28;20482;-81
2022/09/27 07:43:38;;;;;;;12.90;1.87;;;;;;;;;;5085466;28;20194;-81
2022/09/27 07:46:05;;;;;;;11.03;2.00;;;;;;;;;;5091230;28;20286;-81
2022/09/27 07:48:33;;;;;;;8.80;1.93;;;;;;;;;;5090925;28;20245;-81
2022/09/27 07:51:00;;;;;;;8.83;1.60;;;;;;;;;;5090364;28;20305;-81
2022/09/27 07:53:29;;;;;;;15.17;2.00;;;;;;;;;;5091113;28;20306;-82
2022/09/27 07:55:56;;;;;;;15.20;2.13;;;;;;;;;;5090899;28;20226;-81
2022/09/27 07:58:23;;;;;;;14.07;2.30;;;;;;;;;;5091653;28;20281;-82
2022/09/27 08:00:50;;;;;;;10.13;2.10;;;;;;;;;;5099183;28;20610;-82
2022/09/27 08:03:18;;;;;;;13.47;2.57;;;;;;;;;;5083377;28;20235;-81
2022/09/27 08:05:47;;;;;;;13.60;2.30;;;;;;;;;;5079288;28;20277;-83
2022/09/27 08:08:14;;;;;;;9.73;1.97;;;;;;;;;;5085658;28;20222;-81
2022/09/27 08:10:46;;;;;;;13.23;2.37;;;;;;;;;;5096777;28;20221;-81
2022/09/27 08:13:13;;;;;;;10.57;2.20;;;;;;;;;;5092373;28;20660;-82
2022/09/27 08:15:40;;;;;;;10.70;2.30;;;;;;;;;;5086657;28;20191;-82
2022/09/27 08:18:08;;;;;;;12.03;2.67;;;;;;;;;;5089430;28;20803;-81
2022/09/27 08:20:38;;;;;;;10.90;2.07;;;;;;;;;;5090136;28;20305;-82
2022/09/27 08:23:08;;;;;;;15.83;2.37;;;;;;;;;;5088715;28;20213;-82
2022/09/27 08:25:36;;;;;;;11.10;2.00;;;;;;;;;;5086875;28;20226;-81
2022/09/27 08:28:04;;;;;;;9.37;1.80;;;;;;;;;;5096485;28;20640;-81
2022/09/27 08:30:32;;;;;;;11.80;2.20;;;;;;;;;;5085466;28;20249;-82
2022/09/27 08:33:01;;;;;;;12.50;1.93;;;;;;;;;;5090442;28;20195;-82
2022/09/27 08:35:28;;;;;;;11.23;2.83;;;;;;;;;;5083443;28;20217;-82
2022/09/27 08:37:58;;;;;;;12.40;2.00;;;;;;;;;;5075316;28;20206;-82
2022/09/27 08:40:29;;;;;;;9.27;2.03;;;;;;;;;;5079150;28;20279;-82
2022/09/27 08:43:00;;;;;;;13.33;2.40;;;;;;;;;;5086326;28;20234;-82
2022/09/27 08:45:31;;;;;;;11.33;2.37;;;;;;;;;;5084944;28;20297;-82
2022/09/27 08:47:59;;;;;;;8.37;1.90;;;;;;;;;;5087819;28;20237;-82
2022/09/27 08:50:28;;;;;;;11.50;2.30;;;;;;;;;;5083544;28;20194;-81
2022/09/27 08:52:58;;;;;;;13.30;2.60;;;;;;;;;;5090939;28;20282;-82
2022/09/27 08:55:28;;;;;;;12.43;2.70;;;;;;;;;;5090729;28;20483;-83
2022/09/27 08:57:57;;;;;;;10.00;2.10;;;;;;;;;;5093702;28;20713;-82
2022/09/27 09:00:24;;;;;;;11.10;2.30;;;;;;;;;;5093400;28;20309;-83
2022/09/27 09:02:53;;;;;;;11.70;2.37;;;;;;;;;;5097400;28;20229;-83
2022/09/27 09:05:25;;;;;;;12.80;2.65;;;;;;;;;;5096026;28;20510;-83
2022/09/27 09:08:02;;;;;;;14.83;2.83;;;;;;;;;;5092967;28;20273;-83
2022/09/27 09:13:23;;;;;;;12.27;2.37;;;;;;;;;;5091549;28;20201;-85
2022/09/27 09:15:55;;;;;;;13.85;2.60;;;;;;;;;;5086767;28;20255;-86
2022/09/27 09:18:38;;;;;;;12.45;3.00;;;;;;;;;;5097260;28;20224;-85
2022/09/27 09:21:11;;;;;;;11.95;2.35;;;;;;;;;;5089534;28;20755;-85
2022/09/27 09:23:44;;;;;;;12.75;2.55;;;;;;;;;;5097267;28;20277;-85
2022/09/27 09:26:16;;;;;;;10.27;2.50;;;;;;;;;;5094179;28;20322;-85
2022/09/27 09:28:48;;;;;;;13.93;2.50;;;;;;;;;;5087204;28;20784;-85
2022/09/27 09:31:20;;;;;;;15.15;2.75;;;;;;;;;;5094645;28;20276;-85
2022/09/27 09:33:51;;;;;;;17.40;3.23;;;;;;;;;;5093042;28;20198;-85
2022/09/27 09:36:24;;;;;;;12.60;2.58;;;;;;;;;;5095867;28;20252;-85
2022/09/27 09:38:53;;;;;;;20.93;2.83;;;;;;;;;;5098558;28;20266;-85
2022/09/27 09:41:22;;;;;;;14.38;2.70;;;;;;;;;;5092762;28;20249;-85
2022/09/27 09:43:51;;;;;;;14.43;2.88;;;;;;;;;;5091005;28;20274;-85
2022/09/27 09:46:21;;;;;;;12.90;2.50;;;;;;;;;;5093670;28;20202;-85
2022/09/27 09:48:50;;;;;;;9.80;2.40;;;;;;;;;;5087083;28;20282;-85
2022/09/27 09:51:20;;;;;;;13.50;3.13;;;;;;;;;;5090954;28;20301;-85
2022/09/27 09:53:52;;;;;;;14.63;3.10;;;;;;;;;;5093448;28;20201;-85
2022/09/27 09:56:23;;;;;;;15.80;3.05;;;;;;;;;;5087593;28;20281;-85
2022/09/27 09:58:52;;;;;;;12.57;2.88;;;;;;;;;;5093330;28;20263;-85
2022/09/27 10:01:21;;;;;;;14.48;2.55;;;;;;;;;;5083461;28;20261;-84
2022/09/27 10:03:48;;;;;;;15.13;2.50;;;;;;;;;;5092456;28;20623;-85
2022/09/27 10:06:16;;;;;;;14.55;2.95;;;;;;;;;;5083444;28;20304;-85
2022/09/27 10:08:44;;;;;;;17.30;3.60;;;;;;;;;;5085375;28;20328;-85
2022/09/27 10:11:19;;;;;;;15.20;2.88;;;;;;;;;;5089345;28;20226;-84
2022/09/27 10:13:46;;;;;;;16.88;3.22;;;;;;;;;;5089517;28;20194;-85
2022/09/27 10:16:14;;;;;;;15.40;3.13;;;;;;;;;;5083001;28;20241;-85
2022/09/27 10:18:42;;;;;;;17.60;4.50;;;;;;;;;;5088646;28;20286;-83
2022/09/27 10:21:13;;;;;;;16.88;3.55;;;;;;;;;;5086167;28;20353;-83
2022/09/27 10:23:55;;;;;;;15.43;3.70;;;;;;;;;;5085774;28;20294;-84
2022/09/27 10:26:23;;;;;;;18.92;4.25;;;;;;;;;;5088842;28;20222;-85
2022/09/27 10:28:51;;;;;;;16.10;3.80;;;;;;;;;;5092377;28;20213;-84
2022/09/27 10:31:19;;;;;;;15.00;3.05;;;;;;;;;;5088235;28;20733;-84
2022/09/27 10:33:52;;;;;;;11.13;3.13;;;;;;;;;;5088233;28;20226;-84
2022/09/27 10:36:23;;;;;;;15.02;4.13;;;;;;;;;;5088271;28;20696;-84
2022/09/27 10:38:52;;;;;;;13.15;3.50;;;;;;;;;;5083606;28;20226;-85
2022/09/27 10:41:25;;;;;;;13.88;3.60;;;;;;;;;;5091707;28;20308;-85
2022/09/27 10:43:52;;;;;;;12.85;3.28;;;;;;;;;;5091640;28;20689;-85
2022/09/27 10:46:25;;;;;;;13.93;2.92;;;;;;;;;;5082350;28;20520;-84
2022/09/27 10:49:07;;;;;;;14.70;3.00;;;;;;;;;;5085641;28;20236;-84
2022/09/27 10:51:34;;;;;;;17.77;3.70;;;;;;;;;;5091861;28;20281;-84
2022/09/27 10:54:01;;;;;;;18.25;3.80;;;;;;;;;;5089593;28;20234;-84
2022/09/27 10:56:32;;;;;;;14.32;3.42;;;;;;;;;;5091984;28;20281;-84
2022/09/27 10:58:59;;;;;;;16.73;3.65;;;;;;;;;;5090026;28;20263;-85
2022/09/27 11:01:39;;;;;;;14.52;2.90;;;;;;;;;;5091858;28;20222;-84
2022/09/27 11:04:07;;;;;;;14.50;2.75;;;;;;;;;;5090613;28;20315;-84
2022/09/27 11:06:37;;;;;;;13.80;3.35;;;;;;;;;;5091698;28;20234;-84
2022/09/27 11:09:12;;;;;;;15.15;2.97;;;;;;;;;;5091009;28;20286;-84
2022/09/27 11:11:41;;;;;;;13.75;3.17;;;;;;;;;;5087527;28;20221;-84
2022/09/27 11:14:18;;;;;;;16.42;3.60;;;;;;;;;;5093676;28;20616;-85
2022/09/27 11:17:06;;;;;;;16.20;3.47;;;;;;;;;;5093992;28;20240;-85
2022/09/27 11:19:47;;;;;;;12.82;3.28;;;;;;;;;;5097927;28;20754;-85
2022/09/27 11:22:21;;;;;;;12.20;3.03;;;;;;;;;;5082046;28;20249;-85
2022/09/27 11:24:55;;;;;;;20.02;3.83;;;;;;;;;;5082839;28;20676;-85
2022/09/27 11:27:30;;;;;;;16.02;3.05;;;;;;;;;;5097073;28;20716;-85
2022/09/27 11:30:04;;;;;;;18.48;3.40;;;;;;;;;;5090835;28;20638;-85
2022/09/27 11:32:40;;;;;;;13.80;3.38;;;;;;;;;;5090803;28;20696;-85
2022/09/27 11:35:25;;;;;;;17.83;3.78;;;;;;;;;;5088210;28;20201;-85
2022/09/27 11:37:59;;;;;;;14.40;2.88;;;;;;;;;;5090500;28;20667;-85
2022/09/27 11:40:29;;;;;;;14.88;3.63;;;;;;;;;;5091299;28;20279;-85
2022/09/27 11:43:16;;;;;;;10.93;2.85;;;;;;;;;;5085913;28;20194;-85
2022/09/27 11:45:57;;;;;;;16.33;3.13;;;;;;;;;;5086747;28;20282;-85
2022/09/27 11:48:52;;;;;;;16.58;3.50;;;;;;;;;;5091647;28;20685;-85
2022/09/27 11:51:27;;;;;;;15.70;3.70;;;;;;;;;;5049437;28;20199;-85
2022/09/27 11:54:00;;;;;;;15.32;3.58;;;;;;;;;;5088006;28;20233;-85
2022/09/27 11:56:35;;;;;;;15.55;3.53;;;;;;;;;;5091825;28;20281;-85
2022/09/27 11:59:11;;;;;;;21.60;3.63;;;;;;;;;;5092529;28;20283;-85
2022/09/27 12:01:44;;;;;;;14.60;3.22;;;;;;;;;;5084635;28;20325;-85
2022/09/27 12:04:27;;;;;;;20.58;3.70;;;;;;;;;;5082536;28;20289;-85
2022/09/27 12:06:59;;;;;;;14.88;3.60;;;;;;;;;;5088550;28;20641;-85
2022/09/27 12:09:30;;;;;;;18.48;3.38;;;;;;;;;;5090615;28;20697;-85
2022/09/27 12:12:00;;;;;;;17.90;3.58;;;;;;;;;;5097202;28;20226;-85
2022/09/27 12:14:31;;;;;;;17.23;3.47;;;;;;;;;;5081066;28;20229;-77
2022/09/27 12:17:00;;;;;;;15.75;3.47;;;;;;;;;;5085032;28;20280;-78
2022/09/27 12:19:28;;;;;;;14.77;3.08;;;;;;;;;;5089513;28;20230;-78
2022/09/27 12:21:56;;;;;;;20.77;3.60;;;;;;;;;;5084278;28;20222;-78
2022/09/27 12:24:25;;;;;;;16.58;3.40;;;;;;;;;;5085598;28;20233;-77
2022/09/27 12:26:53;;;;;;;17.35;3.60;;;;;;;;;;5099361;28;20331;-78
2022/09/27 12:29:23;;;;;;;14.60;3.25;;;;;;;;;;5094850;28;20305;-78
2022/09/27 12:31:55;;;;;;;16.88;3.58;;;;;;;;;;5094240;28;20219;-78
2022/09/27 12:34:26;;;;;;;16.98;3.55;;;;;;;;;;5089825;28;20210;-77
2022/09/27 12:36:57;;;;;;;18.08;3.80;;;;;;;;;;5079524;28;20641;-78
2022/09/27 12:39:26;;;;;;;16.67;3.40;;;;;;;;;;5092188;28;20269;-78
2022/09/27 12:42:00;;;;;;;17.15;3.22;;;;;;;;;;5091186;28;20260;-77
2022/09/27 12:44:28;;;;;;;16.15;3.50;;;;;;;;;;5083569;28;20198;-78
2022/09/27 12:47:02;;;;;;;15.25;3.30;;;;;;;;;;5089454;28;20251;-77
2022/09/27 12:49:35;;;;;;;17.67;3.78;;;;;;;;;;5087374;28;20240;-85
2022/09/27 12:52:06;;;;;;;22.27;3.35;;;;;;;;;;5093302;28;20765;-85
2022/09/27 12:54:52;;;;;;;19.30;3.85;;;;;;;;;;5087062;28;20205;-84
2022/09/27 12:57:28;;;;;;;13.55;3.30;;;;;;;;;;5098834;28;20194;-85
2022/09/27 13:00:04;;;;;;;15.85;3.40;;;;;;;;;;5095947;28;20289;-85
2022/09/27 13:02:43;;;;;;;14.68;3.20;;;;;;;;;;5098152;28;20567;-85
2022/09/27 13:05:29;;;;;;;17.13;3.10;;;;;;;;;;5093338;28;20284;-84
2022/09/27 13:08:04;;;;;;;16.60;2.95;;;;;;;;;;5093906;28;20230;-85
2022/09/27 13:10:44;;;;;;;19.75;3.60;;;;;;;;;;5094796;28;20234;-85
2022/09/27 13:13:13;;;;;;;16.10;3.47;;;;;;;;;;5093591;28;20549;-85
2022/09/27 13:15:40;;;;;;;16.75;3.38;;;;;;;;;;5093777;28;20195;-84
2022/09/27 13:18:24;;;;;;;21.60;4.22;;;;;;;;;;5093490;28;20295;-84
2022/09/27 13:20:51;;;;;;;17.73;3.25;;;;;;;;;;5088244;28;20264;-84
2022/09/27 13:23:40;;;;;;;14.38;3.20;;;;;;;;;;5099709;28;20252;-85
2022/09/27 13:26:21;;;;;;;19.33;3.40;;;;;;;;;;5091600;28;20281;-85
2022/09/27 13:29:00;;;;;;;18.58;3.17;;;;;;;;;;5094694;28;20293;-85
2022/09/27 13:31:42;;;;;;;16.92;3.50;;;;;;;;;;5081960;28;20288;-85
2022/09/27 13:34:34;;;;;;;14.50;3.15;;;;;;;;;;5083260;28;20709;-85
2022/09/27 13:37:22;;;;;;;12.15;2.53;;;;;;;;;;5096803;28;20207;-84
2022/09/27 13:39:49;;;;;;;12.40;2.22;;;;;;;;;;5092333;28;20679;-84
2022/09/27 13:42:34;;;;;;;12.75;2.45;;;;;;;;;;5093648;28;20317;-84
2022/09/27 13:45:18;;;;;;;13.77;2.70;;;;;;;;;;5090254;28;20237;-84
2022/09/27 13:47:47;;;;;;;12.10;2.72;;;;;;;;;;5092230;28;20251;-84
2022/09/27 13:50:18;;;;;;;12.45;2.60;;;;;;;;;;5091628;28;20235;-85
2022/09/27 13:52:56;;;;;;;11.57;2.65;;;;;;;;;;5093775;28;20281;-84
2022/09/27 13:55:41;;;;;;;12.02;2.60;;;;;;;;;;5092919;28;20285;-84
2022/09/27 13:58:16;;;;;;;13.55;3.10;;;;;;;;;;5092832;28;20232;-84
2022/09/27 14:00:46;;;;;;;18.05;3.10;;;;;;;;;;5088911;28;20199;-84
2022/09/27 14:03:16;;;;;;;13.30;2.85;;;;;;;;;;5090839;28;20238;-84
2022/09/27 14:05:47;;;;;;;15.10;3.42;;;;;;;;;;5088848;28;20282;-84
2022/09/27 14:08:27;;;;;;;16.38;3.20;;;;;;;;;;5090806;28;20250;-84
2022/09/27 14:10:56;;;;;;;17.85;4.00;;;;;;;;;;5088092;28;20278;-84
2022/09/27 14:13:24;;;;;;;16.00;3.03;;;;;;;;;;5092893;28;20631;-84
2022/09/27 14:15:54;;;;;;;12.85;2.72;;;;;;;;;;5091333;28;20285;-84
2022/09/27 14:18:22;;;;;;;18.73;3.58;;;;;;;;;;5093747;28;20286;-84
2022/09/27 14:20:51;;;;;;;11.93;3.22;;;;;;;;;;5096631;28;20234;-84
2022/09/27 14:23:21;;;;;;;17.23;3.05;;;;;;;;;;5087214;28;20226;-84
2022/09/27 14:25:51;;;;;;;14.77;2.67;;;;;;;;;;5092867;28;20627;-84
2022/09/27 14:28:22;;;;;;;13.45;2.58;;;;;;;;;;5104034;28;20197;-84
2022/09/27 14:31:05;;;;;;;10.07;2.50;;;;;;;;;;5098424;28;20230;-84
2022/09/27 14:33:35;;;;;;;15.40;2.67;;;;;;;;;;5093311;28;20263;-84
2022/09/27 14:38:48;;;;;;;7.10;1.90;;;;;;;;;;5083518;28;20237;-84
2022/09/27 14:41:16;;;;;;;11.40;2.03;;;;;;;;;;5083878;28;20194;-83
2022/09/27 14:43:44;;;;;;;11.05;2.25;;;;;;;;;;5091997;28;20205;-83
2022/09/27 14:46:24;;;;;;;9.03;2.13;;;;;;;;;;5081842;28;20293;-83
2022/09/27 14:48:54;;;;;;;9.27;2.00;;;;;;;;;;5090619;28;20692;-83
2022/09/27 14:51:22;;;;;;;12.67;3.07;;;;;;;;;;5091422;28;20198;-83
2022/09/27 14:53:57;;;;;;;11.60;2.37;;;;;;;;;;5095694;28;20226;-83
2022/09/27 14:56:26;;;;;;;9.30;2.57;;;;;;;;;;5093255;28;20551;-83
2022/09/27 14:58:55;;;;;;;11.87;2.43;;;;;;;;;;5093027;28;20285;-83
2022/09/27 15:01:23;;;;;;;14.50;2.47;;;;;;;;;;5086859;28;20202;-83
2022/09/27 15:03:54;;;;;;;12.53;2.23;;;;;;;;;;5089010;28;20202;-84